Timnath, Colorado
Current Conditions -  °F | °C
As of 5:15 PM on Tuesday 25 Nov 2014 (Local Time) from KFNL Reporting Station
Clear Clear  
Wind Chill: 39°   Ceiling: Unl
Heat Index: 48°   Visibility: 10mi
Dew Point: 21°   Wind: 36mph
Humidity: 34%   Direction: 280°W
Pressure: 29.87"   Gusts: 47mph
Location:  40.53°N, 104.99°W
Report Text: KFNL 260015Z AUTO 28031G41KT 10SM CLR 09/M06 A2987 RMK AO1
Loading
Personal Weather Stations






























Interactive Weather Map New forecast layout! Learn more

10-Day Weather Forecast

Advertisements
Track Severe Weather on mobile